Latest Weather Observations for Double Island Point

IDQ60801

Issued at 12:05 pm EST Saturday 1 November 2014 (issued every 30 minutes, with the page automatically refreshed every 10 minutes)

About weather observations | Map of weather stations | Latest weather observations for QLD | Other Formats
Station Details ID: 040068 Name: DOUBLE ISLAND POINT LIGHTHOUSE Lat: -25.93 Lon: 153.19 Height: 95.64 m
Data from the previous 72 hours. | See also: Recent months at Double Island Point
Date/Time
EST
Temp
°C
App
Temp
°C
Dew
Point
Rel
Hum
%
Delta-T
°C
Wind Press
QNH
hPa
Press
MSL
hPa
Rain
since 9 am
mm
Dir
 
Spd
km/h
Gust
km/h
Spd
kts
Gust
kts
01/12:00pm 26.3 24.3 18.2 61 5.1 N 26 44 14 24 1014.7 1014.2 0.0
01/11:30am 26.7 24.6 18.0 59 5.5 N 26 44 14 24 1015.3 1014.8 0.0
01/11:00am 26.2 25.5 18.6 63 4.9 N 20 32 11 17 1015.9 1015.4 0.0
01/10:30am 27.0 28.5 18.8 60 5.3 N 9 19 5 10 1016.7 1016.2 0.0
01/10:00am 26.3 26.4 19.2 65 4.6 N 17 30 9 16 1016.0 1015.5 0.0
01/09:30am 25.8 25.5 18.2 63 4.8 N 17 28 9 15 1016.3 1015.9 0.0
01/09:00am 25.6 25.9 18.0 63 4.8 N 13 24 7 13 1016.4 1016.0 0.0
01/08:30am 25.9 25.8 18.8 65 4.5 N 17 32 9 17 1016.7 1016.3 0.0
01/08:00am 24.9 25.7 18.1 66 4.3 N 11 15 6 8 1016.2 1015.8 0.0
01/07:30am 24.8 25.4 18.5 68 4.0 N 13 24 7 13 1016.6 1016.2 0.0
01/07:00am 24.0 24.8 18.2 70 3.7 N 11 24 6 13 1016.1 1015.7 0.0
01/06:30am 23.4 24.3 18.5 74 3.1 N 11 19 6 10 1016.0 1015.6 0.0
01/06:00am 22.7 24.2 18.9 79 2.4 N 9 17 5 9 1015.7 1015.3 0.0
01/05:30am 21.8 22.8 18.6 82 2.0 N 11 17 6 9 1015.4 1015.0 0.0
01/05:00am 21.4 22.7 18.4 83 1.9 N 9 13 5 7 1015.5 1015.1 0.0
01/04:30am 21.3 22.2 18.3 83 1.9 N 11 22 6 12 1014.9 1014.5 0.0
01/04:00am 21.3 22.2 18.5 84 1.8 N 11 17 6 9 1014.8 1014.4 0.0
01/03:30am 21.2 22.4 18.2 83 1.9 N 9 15 5 8 1014.8 1014.4 0.0
01/03:00am 21.3 22.2 18.5 84 1.8 N 11 20 6 11 1014.6 1014.2 0.0
01/02:30am 21.3 22.2 18.3 83 1.9 N 11 17 6 9 1014.7 1014.3 0.0
01/02:00am 21.4 22.3 18.4 83 1.9 N 11 24 6 13 1014.9 1014.5 0.0
01/01:30am 21.5 21.8 18.7 84 1.8 N 15 24 8 13 1015.2 1014.8 0.0
01/01:00am 21.4 22.8 18.6 84 1.8 N 9 13 5 7 1015.2 1014.8 0.0
01/12:30am 21.4 22.8 18.6 84 1.8 N 9 13 5 7 1015.3 1014.9 0.0
01/12:00am 21.5 22.9 18.7 84 1.8 N 9 13 5 7 1015.7 1015.3 0.0
 
Date/Time
EST
Temp
°C
App
Temp
°C
Dew
Point
Rel
Hum
%
Delta-T
°C
Wind Press
QNH
hPa
Press
MSL
hPa
Rain
since 9 am
mm
Dir
 
Spd
km/h
Gust
km/h
Spd
kts
Gust
kts
31/11:30pm 21.6 23.0 18.6 83 1.9 N 9 15 5 8 1016.3 1015.9 0.0
31/11:00pm 21.9 23.4 18.9 83 1.9 N 9 13 5 7 1016.4 1016.0 0.0
31/10:30pm 22.1 23.2 18.9 82 2.0 N 11 15 6 8 1016.5 1016.1 0.0
31/10:00pm 22.1 23.2 18.9 82 2.0 N 11 17 6 9 1016.6 1016.2 0.0
31/09:30pm 22.4 23.7 19.2 82 2.0 N 11 15 6 8 1016.4 1016.0 0.0
31/09:00pm 22.5 23.9 19.5 83 1.9 N 11 19 6 10 1016.3 1015.9 0.0
31/08:30pm 22.5 23.4 19.3 82 2.0 N 13 20 7 11 1016.3 1015.9 0.0
31/08:00pm 22.7 22.9 19.3 81 2.2 N 17 30 9 16 1016.2 1015.8 0.0
31/07:30pm 22.8 22.3 19.2 80 2.3 N 20 37 11 20 1015.7 1015.3 0.0
31/07:00pm 22.9 20.0 19.3 80 2.3 N 33 43 18 23 1015.1 1014.7 0.0
31/06:30pm 22.9 20.1 19.1 79 2.4 N 32 43 17 23 1014.8 1014.4 0.0
31/06:00pm 23.1 20.3 19.1 78 2.5 N 32 39 17 21 1014.7 1014.3 0.0
31/05:30pm 23.5 21.4 19.0 76 2.9 N 28 43 15 23 1014.7 1014.3 0.0
31/05:00pm 24.3 21.8 18.9 72 3.4 N 30 39 16 21 1014.4 1014.0 0.0
31/04:30pm 24.4 20.7 18.3 69 3.9 NNE 35 41 19 22 1014.4 1014.0 0.0
31/04:00pm 26.1 23.0 18.5 63 4.8 NNE 32 37 17 20 1014.2 1013.8 0.0
31/03:30pm 26.3 23.0 18.4 61 5.0 NNE 33 39 18 21 1014.4 1014.0 0.0
31/03:00pm 26.9 23.8 18.5 60 5.4 NNE 32 39 17 21 1014.5 1014.1 0.0
31/02:30pm 27.2 24.1 18.5 59 5.6 NNE 32 37 17 20 1014.7 1014.3 0.0
31/02:00pm 27.4 25.8 18.4 58 5.8 NNE 24 33 13 18 1014.9 1014.5 0.0
31/01:30pm 27.3 24.7 18.6 59 5.6 NNE 30 35 16 19 1015.1 1014.7 0.0
31/01:00pm 28.1 25.8 18.5 56 6.2 NNE 28 33 15 18 1015.5 1015.1 0.0
31/12:30pm 27.9 25.7 18.6 57 6.0 NNE 28 32 15 17 1015.9 1015.5 0.0
31/12:00pm 28.9 28.8 19.5 57 6.1 NNE 19 28 10 15 1016.2 1015.8 0.0
31/11:30am 29.1 29.4 19.7 57 6.2 NNE 17 24 9 13 1016.6 1016.2 0.0
31/11:00am 28.4 28.2 19.3 57 5.9 NNE 19 24 10 13 1016.8 1016.4 0.0
31/10:30am 28.2 28.6 19.1 57 5.9 N 15 20 8 11 1017.0 1016.6 0.0
31/10:00am 27.8 29.6 19.6 61 5.3 N 9 17 5 9 1017.3 1016.9 0.0
31/09:30am 26.9 29.0 19.3 63 4.9 N 7 11 4 6 1017.5 1017.1 0.0
31/09:00am 26.4 28.7 19.8 67 4.3 N 7 11 4 6 1017.6 1017.2 0.0
31/08:30am 25.2 26.8 19.1 69 3.9 N 9 13 5 7 1017.8 1017.4 0.0
31/08:00am 24.2 25.9 19.3 74 3.1 NNW 9 15 5 8 1017.6 1017.2 0.0
31/07:30am 23.7 24.6 19.2 76 2.9 NNW 13 17 7 9 1017.4 1017.0 0.0
31/07:00am 22.8 24.3 19.8 83 1.9 NW 11 17 6 9 1017.2 1016.8 0.0
31/06:30am 22.4 23.8 19.6 84 1.8 NW 11 15 6 8 1016.9 1016.5 0.0
31/06:00am 21.8 23.2 19.5 87 1.5 NW 11 15 6 8 1016.7 1016.3 0.0
31/05:30am 21.4 21.6 19.3 88 1.3 NW 17 19 9 10 1016.4 1016.0 0.0
31/05:00am 21.4 21.8 19.1 87 1.5 NW 15 19 8 10 1015.8 1015.4 0.0
31/04:30am 21.2 21.1 18.8 86 1.5 NNW 17 20 9 11 1015.7 1015.3 0.0
31/04:00am 21.2 22.9 18.6 85 1.6 N 7 9 4 5 1015.2 1014.8 0.0
31/03:30am 21.3 21.9 18.7 85 1.6 NNW 13 13 7 7 1015.3 1014.9 0.0
31/03:00am 21.5 21.8 18.7 84 1.8 NNW 15 17 8 9 1015.1 1014.7 0.0
31/02:30am 21.9 22.3 19.1 84 1.8 NNW 15 19 8 10 1015.3 1014.9 0.0
31/02:00am 22.0 22.6 19.4 85 1.7 NNW 15 20 8 11 1015.3 1014.9 0.0
31/01:30am 22.1 23.5 19.5 85 1.7 NNW 11 15 6 8 1015.4 1015.0 0.0
31/01:00am 22.0 24.3 19.4 85 1.7 N 6 11 3 6 1015.4 1015.0 0.0
31/12:30am 21.9 23.2 19.3 85 1.7 N 11 17 6 9 1015.4 1015.0 0.0
31/12:00am 22.0 22.1 19.2 84 1.8 N 17 19 9 10 1015.5 1015.1 0.0
 
Date/Time
EST
Temp
°C
App
Temp
°C
Dew
Point
Rel
Hum
%
Delta-T
°C
Wind Press
QNH
hPa
Press
MSL
hPa
Rain
since 9 am
mm
Dir
 
Spd
km/h
Gust
km/h
Spd
kts
Gust
kts
30/11:30pm 22.0 22.4 19.0 83 1.9 N 15 19 8 10 1015.9 1015.5 0.0
30/11:00pm 22.2 23.5 19.4 84 1.8 N 11 19 6 10 1016.4 1016.0 0.0
30/10:30pm 22.2 23.2 19.4 84 1.8 N 13 19 7 10 1016.6 1016.2 0.0
30/10:00pm 22.4 22.7 19.6 84 1.8 N 17 20 9 11 1016.5 1016.1 0.0
30/09:30pm 22.2 21.8 19.4 84 1.8 NNE 20 24 11 13 1016.4 1016.0 0.0
30/09:00pm 22.2 23.1 19.2 83 1.9 NNE 13 20 7 11 1016.3 1015.9 0.0
30/08:30pm 22.1 22.8 18.9 82 2.0 NE 13 17 7 9 1016.2 1015.8 0.0
30/08:00pm 22.2 22.9 18.8 81 2.1 NNE 13 17 7 9 1016.0 1015.6 0.0
30/07:30pm 22.3 23.0 18.9 81 2.2 NE 13 19 7 10 1015.8 1015.4 0.0
30/07:00pm 22.5 23.1 18.7 79 2.4 NE 13 20 7 11 1015.3 1014.9 0.0
30/06:30pm 22.6 22.2 18.8 79 2.4 NE 19 24 10 13 1014.8 1014.4 0.0
30/06:00pm 22.9 22.5 18.9 78 2.5 NE 19 24 10 13 1014.7 1014.3 0.0
30/05:30pm 23.4 22.8 18.5 74 3.1 NE 19 22 10 12 1014.4 1014.0 0.0
30/05:00pm 23.5 23.1 18.8 75 3.0 ENE 19 24 10 13 1014.3 1013.9 0.0
30/04:30pm 23.9 23.3 18.8 73 3.2 ENE 20 24 11 13 1014.1 1013.7 0.0
30/04:00pm 24.4 23.5 19.0 72 3.5 ENE 22 28 12 15 1013.9 1013.5 0.0
30/03:30pm 25.3 24.4 19.0 68 4.0 E 22 26 12 14 1014.0 1013.6 0.0
30/03:00pm 25.6 24.8 19.3 68 4.1 E 22 24 12 13 1014.3 1013.9 0.0
30/02:30pm 25.9 25.4 19.1 66 4.4 E 20 26 11 14 1014.3 1013.9 0.0
30/02:00pm 25.3 24.5 19.2 69 3.9 ESE 22 28 12 15 1014.6 1014.2 0.0
30/01:30pm 25.8 25.3 19.0 66 4.4 ESE 20 26 11 14 1014.9 1014.5 0.0
30/01:00pm 26.1 25.9 19.7 68 4.2 ESE 20 24 11 13 1015.3 1014.9 0.0
30/12:30pm 25.4 25.0 19.3 69 3.9 SE 20 24 11 13 1015.7 1015.3 0.0
30/12:00pm 25.7 25.5 19.8 70 3.8 SSE 20 24 11 13 1016.1 1015.7 0.0
30/11:30am 24.9 23.8 19.5 72 3.5 SSE 24 28 13 15 1016.6 1016.2 0.0
30/11:00am 24.9 23.9 19.7 73 3.4 S 24 28 13 15 1017.0 1016.6 0.0
30/10:30am 25.8 25.7 19.9 70 3.8 SSE 20 26 11 14 1017.4 1017.0 0.0
30/10:00am 24.5 23.7 19.3 73 3.3 SSE 22 26 12 14 1017.5 1017.1 0.0
30/09:30am 24.8 24.6 19.8 74 3.2 SSE 20 28 11 15 1017.7 1017.3 0.0
30/09:00am 24.8 24.3 19.2 71 3.6 SSE 20 24 11 13 1017.6 1017.2 0.0
30/08:30am 25.1 25.0 19.9 73 3.4 SSE 20 22 11 12 1017.7 1017.3 0.0
30/08:00am 24.1 23.4 19.4 75 3.0 SSE 22 24 12 13 1017.7 1017.3 0.0
30/07:30am 23.7 23.2 19.2 76 2.9 SE 20 24 11 13 1017.5 1017.1 0.0
30/07:00am 23.5 22.4 19.4 78 2.6 SE 24 26 13 14 1017.3 1016.9 0.0
30/06:30am 23.1 22.2 19.9 82 2.1 SE 24 26 13 14 1016.9 1016.5 0.0
30/06:00am 22.4 21.5 19.8 85 1.7 SE 24 28 13 15 1016.6 1016.2 0.0
30/05:30am 22.0 20.6 19.7 87 1.5 SE 26 28 14 15 1016.0 1015.6 0.0
30/05:00am 21.9 21.0 19.8 88 1.3 SE 24 26 13 14 1015.6 1015.2 0.0
30/04:30am 21.8 21.3 19.9 89 1.2 SSE 22 26 12 14 1015.5 1015.1 0.0
30/04:00am 21.6 20.6 19.7 89 1.2 SSE 24 28 13 15 1015.1 1014.7 0.0
30/03:30am 21.6 20.6 19.7 89 1.2 SSE 24 30 13 16 1015.0 1014.6 0.0
30/03:00am 21.6 20.6 19.7 89 1.2 SSE 24 26 13 14 1015.1 1014.7 0.0
30/02:30am 21.5 20.8 19.6 89 1.2 SSE 22 26 12 14 1015.3 1014.9 0.0
30/02:00am 21.6 20.5 19.5 88 1.3 SSE 24 26 13 14 1015.3 1014.9 0.0
30/01:30am 21.9 20.6 19.8 88 1.3 SE 26 30 14 16 1015.3 1014.9 0.0
30/01:00am 21.8 21.6 19.7 88 1.3 SSE 20 24 11 13 1015.4 1015.0 0.0
30/12:30am 21.8 21.6 19.7 88 1.3 SSE 20 24 11 13 1015.6 1015.2 0.0
30/12:00am 21.7 21.0 19.4 87 1.5 SE 22 24 12 13 1016.0 1015.6 0.0
 
Date/Time
EST
Temp
°C
App
Temp
°C
Dew
Point
Rel
Hum
%
Delta-T
°C
Wind Press
QNH
hPa
Press
MSL
hPa
Rain
since 9 am
mm
Dir
 
Spd
km/h
Gust
km/h
Spd
kts
Gust
kts
29/11:30pm 21.9 21.3 19.8 88 1.3 SSE 22 26 12 14 1016.2 1015.8 0.0
29/11:00pm 21.9 20.9 19.6 87 1.5 SE 24 28 13 15 1016.4 1016.0 0.0
29/10:30pm 21.9 20.5 19.6 87 1.5 SE 26 30 14 16 1016.5 1016.1 0.0
29/10:00pm 21.9 20.4 19.5 86 1.5 SE 26 28 14 15 1016.6 1016.2 0.0
29/09:30pm 22.1 20.6 19.5 85 1.7 ESE 26 32 14 17 1016.5 1016.1 0.0
29/09:00pm 22.3 20.8 19.5 84 1.8 ESE 26 30 14 16 1016.5 1016.1 0.0
29/08:30pm 22.2 21.2 19.6 85 1.7 ESE 24 28 13 15 1016.4 1016.0 0.0
29/08:00pm 22.2 20.8 19.6 85 1.7 ESE 26 30 14 16 1016.0 1015.6 0.0
29/07:30pm 22.2 20.2 19.2 83 1.9 ESE 28 32 15 17 1015.7 1015.3 0.0
29/07:00pm 22.3 20.8 19.5 84 1.8 ESE 26 30 14 16 1015.5 1015.1 0.0
29/06:30pm 22.5 21.0 19.5 83 1.9 ESE 26 30 14 16 1015.4 1015.0 0.0
29/06:00pm 22.6 20.7 19.4 82 2.0 ESE 28 33 15 18 1015.1 1014.7 0.0
29/05:30pm 22.7 19.9 19.1 80 2.3 ESE 32 35 17 19 1014.7 1014.3 0.0
29/05:00pm 23.1 20.7 19.9 82 2.1 SE 32 33 17 18 1014.3 1013.9 0.0
29/04:30pm 23.2 20.2 19.8 81 2.2 SE 35 43 19 23 1013.9 1013.5 0.0
29/04:00pm 23.4 19.6 19.8 80 2.3 SE 39 44 21 24 1013.2 1012.9 0.0
29/03:30pm 23.5 19.2 19.6 79 2.5 SE 41 46 22 25 1013.1 1012.8 0.0
29/03:00pm 23.5 18.8 19.4 78 2.6 SE 43 48 23 26 1013.1 1012.8 0.0
29/02:30pm 23.7 18.9 19.6 78 2.6 SE 44 46 24 25 1013.3 1013.0 0.0
29/02:00pm 24.0 19.8 19.7 77 2.8 SE 41 44 22 24 1013.5 1013.1 0.0
29/01:30pm 24.5 21.6 20.0 76 2.9 SSE 35 41 19 22 1013.6 1013.2 0.0
29/01:00pm 24.7 21.3 19.8 74 3.2 SSE 37 41 20 22 1013.6 1013.2 0.0
29/12:30pm 24.9 22.2 19.7 73 3.4 SSE 33 37 18 20 1013.8 1013.4 0.0

Other Formats:

Comma delimited format used in spreadsheet applications
http://www.bom.gov.au/fwo/IDQ60801/IDQ60801.94584.axf

JavaScript Object Notation format (JSON) in row-major order
http://www.bom.gov.au/fwo/IDQ60801/IDQ60801.94584.json